createdAt,value
2023-04-25T00:01:48.634Z,99603.09
2023-04-25T00:04:50.561Z,99591.38
2023-04-25T00:07:52.357Z,99600.56
2023-04-25T00:10:53.837Z,99600.75
2023-04-25T00:13:55.365Z,99610.59
2023-04-25T00:16:57.084Z,99610.78
2023-04-25T00:19:59.197Z,99611.63
2023-04-25T00:23:00.728Z,99611.63
2023-04-25T00:26:02.334Z,99595.50
2023-04-25T00:29:04.001Z,99604.69
2023-04-25T00:32:05.586Z,99606.56
2023-04-25T00:35:07.685Z,99609.28
2023-04-25T00:38:09.170Z,99616.59
2023-04-25T00:41:11.103Z,99619.31
2023-04-25T00:44:13.183Z,99610.31
2023-04-25T00:47:15.538Z,99619.50
2023-04-25T00:50:17.405Z,99614.25
2023-04-25T00:53:19.058Z,99611.53
2023-04-25T00:56:22.238Z,99621.56
2023-04-25T00:59:24.256Z,99622.59
2023-04-25T01:02:26.928Z,99612.56
2023-04-25T01:05:28.571Z,99617.16
2023-04-25T01:08:30.216Z,99614.44
2023-04-25T01:11:31.925Z,99608.16
2023-04-25T01:14:33.788Z,99619.03
2023-04-25T01:17:35.739Z,99620.09
2023-04-25T01:20:38.230Z,99617.38
2023-04-25T01:23:41.453Z,99613.78
2023-04-25T01:26:50.529Z,99615.66
2023-04-25T01:29:56.836Z,99620.44
2023-04-25T01:33:00.140Z,99615.00
2023-04-25T01:36:04.406Z,99621.31
2023-04-25T01:39:06.035Z,99619.59
2023-04-25T01:42:07.702Z,99615.19
2023-04-25T01:45:11.636Z,99610.59
2023-04-25T01:48:14.638Z,99611.66
2023-04-25T01:51:18.964Z,99616.22
2023-04-25T01:54:21.168Z,99615.38
2023-04-25T01:57:23.011Z,99629.81
2023-04-25T02:00:24.774Z,99622.69
2023-04-25T02:03:26.667Z,99633.75
2023-04-25T02:06:28.873Z,99632.06
2023-04-25T02:09:32.425Z,99641.06
2023-04-25T02:12:36.965Z,99634.59
2023-04-25T02:15:59.462Z,99643.97
2023-04-25T02:19:01.163Z,99645.81
2023-04-25T02:22:02.886Z,99637.88
2023-04-25T02:25:05.624Z,99644.16
2023-04-25T02:28:07.281Z,99646.88
2023-04-25T02:31:08.843Z,99663.34
2023-04-25T02:34:10.378Z,99649.75
2023-04-25T02:37:13.894Z,99659.78
2023-04-25T02:40:15.516Z,99670.66
2023-04-25T02:43:17.160Z,99677.13
2023-04-25T02:46:28.658Z,99677.97
2023-04-25T02:49:39.728Z,99676.28
2023-04-25T02:52:41.252Z,99675.44
2023-04-25T02:55:48.903Z,99680.03
2023-04-25T02:58:50.718Z,99680.03
2023-04-25T03:01:52.408Z,99672.53
2023-04-25T03:04:54.818Z,99676.09
2023-04-25T03:07:56.369Z,99672.38
2023-04-25T03:10:58.407Z,99667.09
2023-04-25T03:14:00.273Z,99667.75
2023-04-25T03:17:02.310Z,99673.00
2023-04-25T03:20:05.101Z,99674.50
2023-04-25T03:23:06.994Z,99672.44
2023-04-25T03:26:08.894Z,99678.53
2023-04-25T03:29:10.453Z,99686.53
2023-04-25T03:32:14.087Z,99687.34
2023-04-25T03:35:15.769Z,99689.88
2023-04-25T03:38:18.115Z,99694.28
2023-04-25T03:41:21.045Z,99697.00
2023-04-25T03:44:29.435Z,99706.00
2023-04-25T03:47:31.265Z,99705.16
2023-04-25T03:50:33.470Z,99703.28
2023-04-25T03:53:35.240Z,99706.84
2023-04-25T03:56:56.704Z,99706.00
2023-04-25T04:00:02.195Z,99718.75
2023-04-25T04:03:14.958Z,99718.75
2023-04-25T04:06:17.633Z,99726.91
2023-04-25T04:09:22.887Z,99730.63
2023-04-25T04:12:24.405Z,99725.41
2023-04-25T04:15:25.966Z,99731.69
2023-04-25T04:18:28.943Z,99733.72
2023-04-25T04:21:32.841Z,99746.31
2023-04-25T04:24:35.114Z,99752.75
2023-04-25T04:27:41.525Z,99745.66
2023-04-25T04:31:11.987Z,99751.06
2023-04-25T04:34:13.696Z,99752.97
2023-04-25T04:37:15.761Z,99755.84
2023-04-25T04:40:18.630Z,99764.00
2023-04-25T04:43:26.886Z,99770.47
2023-04-25T04:46:43.206Z,99770.47
2023-04-25T04:49:48.200Z,99767.25
2023-04-25T04:53:07.077Z,99775.41
2023-04-25T04:56:32.917Z,99777.28
2023-04-25T04:59:50.953Z,99785.44
2023-04-25T05:03:12.551Z,99778.34
2023-04-25T05:06:30.124Z,99783.78
2023-04-25T05:10:04.555Z,99794.63
2023-04-25T05:13:26.306Z,99791.91
2023-04-25T05:16:47.042Z,99796.31
2023-04-25T05:20:10.233Z,99801.75
2023-04-25T05:23:36.394Z,99805.31
2023-04-25T05:26:56.730Z,99814.28
2023-04-25T05:30:30.597Z,99823.50
2023-04-25T05:33:41.893Z,99818.91
2023-04-25T05:36:43.493Z,99823.50
2023-04-25T05:39:44.991Z,99825.16
2023-04-25T05:43:00.920Z,99832.47
2023-04-25T05:46:19.543Z,99838.94
2023-04-25T05:49:35.183Z,99836.25
2023-04-25T05:53:10.177Z,99846.44
2023-04-25T05:56:15.369Z,99854.59
2023-04-25T05:59:16.840Z,99848.31
2023-04-25T06:02:19.483Z,99856.47
2023-04-25T06:05:21.466Z,99856.63
2023-04-25T06:08:23.476Z,99867.34
2023-04-25T06:11:24.975Z,99869.22
2023-04-25T06:14:28.944Z,99866.66
2023-04-25T06:17:31.530Z,99867.69
2023-04-25T06:20:33.793Z,99867.50
2023-04-25T06:23:36.268Z,99869.38
2023-04-25T06:26:41.497Z,99874.81
2023-04-25T06:29:43.225Z,99875.84
2023-04-25T06:32:44.875Z,99882.97
2023-04-25T06:35:46.637Z,99868.72
2023-04-25T06:38:51.154Z,99880.41
2023-04-25T06:41:53.110Z,99880.41
2023-04-25T06:45:13.216Z,99881.47
2023-04-25T06:48:16.485Z,99884.16
2023-04-25T06:51:17.981Z,99894.38
2023-04-25T06:54:20.596Z,99887.06
2023-04-25T06:57:31.701Z,99888.94
2023-04-25T07:00:44.389Z,99896.25
2023-04-25T07:03:46.204Z,99894.56
2023-04-25T07:06:52.657Z,99901.69
2023-04-25T07:09:59.286Z,99895.41
2023-04-25T07:13:01.726Z,99906.28
2023-04-25T07:16:04.100Z,99907.13
2023-04-25T07:19:06.958Z,99903.72
2023-04-25T07:22:08.861Z,99902.72
2023-04-25T07:25:12.980Z,99905.59
2023-04-25T07:28:14.880Z,99915.63
2023-04-25T07:31:18.945Z,99907.47
2023-04-25T07:34:20.434Z,99921.06
2023-04-25T07:37:22.087Z,99923.78
2023-04-25T07:40:37.548Z,99931.94
2023-04-25T07:43:42.744Z,99927.50
2023-04-25T07:46:44.513Z,99938.38
2023-04-25T07:49:46.655Z,99941.09
2023-04-25T07:52:48.397Z,99937.38
2023-04-25T07:56:00.287Z,99944.69
2023-04-25T07:59:06.255Z,99948.41
2023-04-25T08:02:08.628Z,99944.84
2023-04-25T08:05:13.106Z,99955.72
2023-04-25T08:08:17.083Z,99958.44
2023-04-25T08:11:18.783Z,99956.53
2023-04-25T08:14:20.733Z,99966.56
2023-04-25T08:17:23.757Z,99964.69
2023-04-25T08:20:25.999Z,99971.16
2023-04-25T08:23:30.274Z,99961.16
2023-04-25T08:26:40.101Z,99971.34
2023-04-25T08:29:43.039Z,99972.16
2023-04-25T08:32:45.256Z,99975.75
2023-04-25T08:35:59.981Z,99981.19
2023-04-25T08:39:02.758Z,99984.75
2023-04-25T08:42:08.919Z,99982.88
2023-04-25T08:45:11.826Z,99976.41
2023-04-25T08:48:16.801Z,99981.84
2023-04-25T08:51:26.861Z,99985.22
2023-04-25T08:54:35.658Z,99990.66
2023-04-25T08:57:52.938Z,99994.06
2023-04-25T09:00:54.807Z,100008.47
2023-04-25T09:03:58.787Z,100014.75
2023-04-25T09:07:00.407Z,100019.00
2023-04-25T09:10:04.249Z,100019.66
2023-04-25T09:13:12.355Z,100024.94
2023-04-25T09:16:34.652Z,100014.91
2023-04-25T09:20:14.787Z,100036.28
2023-04-25T09:23:16.324Z,100038.16
2023-04-25T09:26:22.318Z,100045.13
2023-04-25T09:29:35.940Z,100046.63
2023-04-25T09:32:38.181Z,100042.22
2023-04-25T09:35:43.228Z,100048.31
2023-04-25T09:38:49.215Z,100046.47
2023-04-25T09:42:04.677Z,100057.97
2023-04-25T09:45:08.305Z,100053.41
2023-04-25T09:48:22.835Z,100057.66
2023-04-25T09:51:28.798Z,100066.81
2023-04-25T09:54:32.451Z,100064.09
2023-04-25T09:57:53.165Z,100067.31
2023-04-25T10:00:59.078Z,100069.16
2023-04-25T10:04:11.815Z,100062.72
2023-04-25T10:07:22.223Z,100057.09
2023-04-25T10:10:26.729Z,100051.66
2023-04-25T10:13:30.643Z,100052.34
2023-04-25T10:16:32.352Z,100064.25
2023-04-25T10:19:34.445Z,100073.25
2023-04-25T10:22:46.830Z,100082.25
2023-04-25T10:25:49.877Z,100078.69
2023-04-25T10:29:02.568Z,100086.66
2023-04-25T10:32:04.444Z,100089.56
2023-04-25T10:35:19.152Z,100087.50
2023-04-25T10:38:20.880Z,100071.19
2023-04-25T10:41:23.813Z,100084.44
2023-04-25T10:44:29.829Z,100077.13
2023-04-25T10:47:44.078Z,100085.09
2023-04-25T10:50:45.696Z,100076.09
2023-04-25T10:54:08.660Z,100083.38
2023-04-25T10:57:30.712Z,100085.72
2023-04-25T11:00:47.969Z,100094.44
2023-04-25T11:03:59.579Z,100083.63
2023-04-25T11:07:08.270Z,100098.41
2023-04-25T11:10:10.224Z,100094.34
2023-04-25T11:13:15.396Z,100101.16
2023-04-25T11:16:26.893Z,100097.56
2023-04-25T11:19:30.127Z,100102.09
2023-04-25T11:22:32.354Z,100107.50
2023-04-25T11:25:35.495Z,100101.00
2023-04-25T11:28:39.187Z,100097.25
2023-04-25T11:31:45.788Z,100118.69
2023-04-25T11:34:47.614Z,100126.63
2023-04-25T11:37:49.484Z,100130.63
2023-04-25T11:40:55.596Z,100144.78
2023-04-25T11:43:57.168Z,100152.03
2023-04-25T11:46:58.807Z,100168.75
2023-04-25T11:50:01.576Z,100167.13
2023-04-25T11:53:03.081Z,100171.25
2023-04-25T11:56:11.416Z,100164.22
2023-04-25T11:59:13.891Z,100157.53
2023-04-25T12:02:27.096Z,100157.91
2023-04-25T12:05:33.929Z,100154.22
2023-04-25T12:08:36.211Z,100152.38
2023-04-25T12:11:53.728Z,100153.25
2023-04-25T12:14:56.138Z,100149.03
2023-04-25T12:17:57.643Z,100145.47
2023-04-25T12:20:59.284Z,100156.56
2023-04-25T12:24:15.413Z,100149.28
2023-04-25T12:27:19.678Z,100144.19
2023-04-25T12:30:21.314Z,100157.25
2023-04-25T12:33:23.750Z,100151.34
2023-04-25T12:36:25.224Z,100154.41
2023-04-25T12:39:26.801Z,100150.34
2023-04-25T12:42:28.639Z,100156.28
2023-04-25T12:45:30.138Z,100154.06
2023-04-25T12:48:32.228Z,100160.84
2023-04-25T12:51:33.875Z,100153.22
2023-04-25T12:54:36.217Z,100164.94
2023-04-25T12:57:37.713Z,100172.75
2023-04-25T13:00:39.656Z,100189.72
2023-04-25T13:03:41.459Z,100207.53
2023-04-25T13:06:43.251Z,100212.78
2023-04-25T13:09:44.750Z,100219.72
2023-04-25T13:12:46.918Z,100220.41
2023-04-25T13:15:48.597Z,100205.81
2023-04-25T13:18:50.071Z,100207.34
2023-04-25T13:21:51.794Z,100204.63
2023-04-25T13:24:53.460Z,100197.16
2023-04-25T13:27:54.980Z,100204.31
2023-04-25T13:30:56.503Z,100203.97
2023-04-25T13:33:57.968Z,100201.25
2023-04-25T13:36:59.702Z,100206.34
2023-04-25T13:40:04.814Z,100207.84
2023-04-25T13:43:07.429Z,100198.69
2023-04-25T13:46:10.932Z,100199.38
2023-04-25T13:49:23.842Z,100200.06
2023-04-25T13:52:25.411Z,100192.06
2023-04-25T13:55:27.254Z,100191.06
2023-04-25T13:58:28.733Z,100182.72
2023-04-25T14:01:32.071Z,100189.88
2023-04-25T14:04:34.252Z,100203.25
2023-04-25T14:07:35.962Z,100203.25
2023-04-25T14:10:38.264Z,100218.56
2023-04-25T14:13:39.768Z,100208.53
2023-04-25T14:16:41.256Z,100218.38
2023-04-25T14:19:46.654Z,100213.81
2023-04-25T14:22:48.279Z,100211.09
2023-04-25T14:25:49.878Z,100208.19
2023-04-25T14:28:52.585Z,100211.59
2023-04-25T14:31:55.245Z,100206.50
2023-04-25T14:34:56.763Z,100210.06
2023-04-25T14:37:58.680Z,100206.31
2023-04-25T14:41:00.542Z,100206.16
2023-04-25T14:44:02.263Z,100208.38
2023-04-25T14:47:03.862Z,100210.75
2023-04-25T14:50:06.753Z,100207.69
2023-04-25T14:53:08.879Z,100206.50
2023-04-25T14:56:10.392Z,100207.88
2023-04-25T14:59:11.958Z,100214.63
2023-04-25T15:02:13.780Z,100208.88
2023-04-25T15:05:16.098Z,100214.81
2023-04-25T15:08:17.618Z,100225.69
2023-04-25T15:11:21.387Z,100217.16
2023-04-25T15:14:22.895Z,100220.72
2023-04-25T15:17:24.384Z,100228.88
2023-04-25T15:20:26.159Z,100232.47
2023-04-25T15:23:29.625Z,100233.31
2023-04-25T15:26:31.331Z,100231.94
2023-04-25T15:29:32.893Z,100231.31
2023-04-25T15:32:35.126Z,100237.22
2023-04-25T15:35:36.832Z,100237.19
2023-04-25T15:38:38.299Z,100236.84
2023-04-25T15:41:42.557Z,100237.63
2023-04-25T15:44:44.032Z,100239.56
2023-04-25T15:47:45.812Z,100236.81
2023-04-25T15:50:47.422Z,100240.66
2023-04-25T15:53:49.167Z,100247.34
2023-04-25T15:56:51.095Z,100260.88
2023-04-25T15:59:52.798Z,100252.84
2023-04-25T16:02:54.588Z,100254.97
2023-04-25T16:05:56.262Z,100259.31
2023-04-25T16:08:57.836Z,100277.50
2023-04-25T16:11:59.430Z,100279.84
2023-04-25T16:15:01.074Z,100281.94
2023-04-25T16:18:03.239Z,100271.84
2023-04-25T16:21:04.863Z,100270.00
2023-04-25T16:24:06.713Z,100276.81
2023-04-25T16:27:08.229Z,100271.59
2023-04-25T16:30:11.515Z,100270.66
2023-04-25T16:33:13.094Z,100267.13
2023-04-25T16:36:14.613Z,100261.44
2023-04-25T16:39:16.474Z,100260.94
2023-04-25T16:42:17.984Z,100265.06
2023-04-25T16:45:21.117Z,100269.31
2023-04-25T16:48:24.274Z,100276.25
2023-04-25T16:51:26.255Z,100275.34
2023-04-25T16:54:27.704Z,100278.34
2023-04-25T16:57:29.192Z,100275.78
2023-04-25T17:00:31.006Z,100286.66
2023-04-25T17:03:34.695Z,100289.44
2023-04-25T17:06:36.980Z,100293.88
2023-04-25T17:09:38.867Z,100302.75
2023-04-25T17:12:40.403Z,100306.38
2023-04-25T17:15:42.192Z,100309.31
2023-04-25T17:18:43.912Z,100305.78
2023-04-25T17:21:45.631Z,100304.94
2023-04-25T17:24:47.155Z,100308.72
2023-04-25T17:27:48.833Z,100302.63
2023-04-25T17:30:51.437Z,100303.66
2023-04-25T17:33:53.016Z,100312.16
2023-04-25T17:36:54.632Z,100318.63
2023-04-25T17:39:56.139Z,100314.59
2023-04-25T17:42:57.622Z,100324.94
2023-04-25T17:45:59.404Z,100320.03
2023-04-25T17:49:01.189Z,100315.28
2023-04-25T17:52:02.845Z,100321.38
2023-04-25T17:55:06.448Z,100330.91
2023-04-25T17:58:07.900Z,100324.44
2023-04-25T18:01:09.519Z,100330.56
2023-04-25T18:04:11.009Z,100333.97
2023-04-25T18:07:12.517Z,100344.69
2023-04-25T18:10:14.543Z,100347.91
2023-04-25T18:13:17.255Z,100351.44
2023-04-25T18:16:18.921Z,100347.75
2023-04-25T18:19:23.923Z,100353.84
2023-04-25T18:22:25.536Z,100359.25
2023-04-25T18:25:27.153Z,100363.50
2023-04-25T18:28:29.164Z,100368.78
2023-04-25T18:31:32.100Z,100373.03
2023-04-25T18:34:34.180Z,100376.59
2023-04-25T18:37:36.072Z,100374.56
2023-04-25T18:40:44.153Z,100383.56
2023-04-25T18:43:58.510Z,100388.84
2023-04-25T18:46:59.969Z,100391.56
2023-04-25T18:50:01.658Z,100398.53
2023-04-25T18:53:03.332Z,100399.38
2023-04-25T18:56:04.885Z,100404.81
2023-04-25T18:59:06.632Z,100410.13
2023-04-25T19:02:09.243Z,100412.66
2023-04-25T19:05:10.849Z,100417.94
2023-04-25T19:08:12.323Z,100424.22
2023-04-25T19:11:20.986Z,100437.63
2023-04-25T19:14:22.968Z,100433.88
2023-04-25T19:17:24.606Z,100435.56
2023-04-25T19:20:26.630Z,100436.44
2023-04-25T19:23:31.106Z,100437.28
2023-04-25T19:26:32.727Z,100448.84
2023-04-25T19:29:34.653Z,100447.81
2023-04-25T19:32:37.325Z,100446.63
2023-04-25T19:35:38.789Z,100440.38
2023-04-25T19:38:40.270Z,100447.69
2023-04-25T19:41:41.771Z,100447.50
2023-04-25T19:44:43.287Z,100453.75
2023-04-25T19:47:44.915Z,100449.22
2023-04-25T19:50:46.518Z,100457.16
2023-04-25T19:53:47.994Z,100456.19
2023-04-25T19:56:49.678Z,100458.91
2023-04-25T19:59:51.327Z,100463.31
2023-04-25T20:02:52.973Z,100464.16
2023-04-25T20:05:54.515Z,100469.56
2023-04-25T20:08:56.244Z,100475.19
2023-04-25T20:11:57.782Z,100476.03
2023-04-25T20:14:59.239Z,100476.38
2023-04-25T20:18:00.887Z,100470.94
2023-04-25T20:21:02.650Z,100475.50
2023-04-25T20:24:04.703Z,100477.56
2023-04-25T20:27:07.235Z,100484.00
2023-04-25T20:30:10.486Z,100483.16
2023-04-25T20:33:12.136Z,100484.34
2023-04-25T20:36:15.510Z,100484.50
2023-04-25T20:39:17.194Z,100492.63
2023-04-25T20:42:19.679Z,100495.53
2023-04-25T20:45:21.212Z,100494.00
2023-04-25T20:48:22.704Z,100499.44
2023-04-25T20:51:24.250Z,100504.19
2023-04-25T20:54:27.028Z,100501.59
2023-04-25T20:57:29.196Z,100504.28
2023-04-25T21:00:30.745Z,100508.19
2023-04-25T21:03:33.715Z,100511.94
2023-04-25T21:06:35.295Z,100509.38
2023-04-25T21:09:36.773Z,100508.72
2023-04-25T21:12:38.364Z,100508.03
2023-04-25T21:15:39.897Z,100509.88
2023-04-25T21:18:41.415Z,100511.91
2023-04-25T21:21:42.992Z,100509.34
2023-04-25T21:24:44.550Z,100507.66
2023-04-25T21:27:47.601Z,100514.09
2023-04-25T21:30:49.219Z,100513.41
2023-04-25T21:33:50.745Z,100515.44
2023-04-25T21:36:52.200Z,100519.16
2023-04-25T21:39:54.363Z,100521.88
2023-04-25T21:42:56.731Z,100516.78
2023-04-25T21:46:21.738Z,100514.22
2023-04-25T21:49:19.742Z,100522.53
2023-04-25T21:52:21.343Z,100519.81
2023-04-25T21:55:23.000Z,100521.84
2023-04-25T21:58:24.725Z,100522.88
2023-04-25T22:01:27.469Z,100522.03
2023-04-25T22:04:29.266Z,100525.03
2023-04-25T22:07:31.015Z,100523.34
2023-04-25T22:10:32.534Z,100521.66
2023-04-25T22:13:34.061Z,100530.78
2023-04-25T22:16:35.645Z,100526.38
2023-04-25T22:19:37.228Z,100531.97
2023-04-25T22:22:39.752Z,100531.13
2023-04-25T22:25:41.976Z,100535.84
2023-04-25T22:28:43.454Z,100530.59
2023-04-25T22:31:44.938Z,100540.59
2023-04-25T22:34:46.624Z,100542.47
2023-04-25T22:37:48.132Z,100536.31
2023-04-25T22:40:52.162Z,100547.19
2023-04-25T22:43:53.859Z,100540.91
2023-04-25T22:46:55.467Z,100543.81
2023-04-25T22:49:57.861Z,100550.09
2023-04-25T22:52:59.379Z,100542.09
2023-04-25T22:56:00.938Z,100546.81
2023-04-25T22:59:02.495Z,100545.13
2023-04-25T23:02:04.062Z,100550.56
2023-04-25T23:05:06.983Z,100550.56
2023-04-25T23:08:08.589Z,100555.28
2023-04-25T23:11:10.127Z,100549.84
2023-04-25T23:14:11.669Z,100555.28
2023-04-25T23:17:13.616Z,100557.31
2023-04-25T23:20:15.242Z,100559.16
2023-04-25T23:23:16.974Z,100556.47
2023-04-25T23:26:18.730Z,100550.31
2023-04-25T23:29:20.209Z,100563.06
2023-04-25T23:32:22.272Z,100559.50
2023-04-25T23:35:23.834Z,100564.22
2023-04-25T23:38:25.471Z,100565.06
2023-04-25T23:41:27.149Z,100567.97
2023-04-25T23:44:28.638Z,100569.84
2023-04-25T23:47:30.169Z,100570.81
2023-04-25T23:50:32.077Z,100566.25
2023-04-25T23:53:33.559Z,100561.84
2023-04-25T23:56:35.012Z,100568.28
2023-04-25T23:59:36.464Z,100566.56
